Time;durP1;ratioP1;P1;durP2;ratioP2;P2;SDS_P1;SDS_P2;PMS_P1;PMS_P2;Temp;Humidity;BMP_temperature;BMP_pressure;BME280_temperature;BME280_humidity;BME280_pressure;Samples;Min_cycle;Max_cycle;Signal;HPM_P1;HPM_P2
2022/07/04 00:01:04;;;;;;;3.60;2.35;;;19.10;81.30;;;;;;5056184;28;20467;-65
2022/07/04 00:03:30;;;;;;;5.93;2.10;;;19.00;81.30;;;;;;5060113;28;20029;-66
2022/07/04 00:05:56;;;;;;;6.55;2.17;;;19.00;81.30;;;;;;5070350;28;20036;-66
2022/07/04 00:08:21;;;;;;;6.43;2.50;;;19.00;81.30;;;;;;5071695;28;20048;-65
2022/07/04 00:10:47;;;;;;;8.55;2.40;;;19.00;81.50;;;;;;5070590;28;20028;-65
2022/07/04 00:13:13;;;;;;;12.80;2.53;;;18.90;81.50;;;;;;5058909;28;20033;-65
2022/07/04 00:15:39;;;;;;;7.97;2.08;;;18.90;81.50;;;;;;5057859;28;20016;-65
2022/07/04 00:18:04;;;;;;;6.55;2.20;;;18.90;81.70;;;;;;5071068;28;20032;-66
2022/07/04 00:20:30;;;;;;;4.82;2.00;;;18.80;81.60;;;;;;5065456;28;20048;-66
2022/07/04 00:22:56;;;;;;;9.40;2.30;;;18.80;81.60;;;;;;5065735;28;20030;-65
2022/07/04 00:25:22;;;;;;;6.00;3.15;;;18.80;81.60;;;;;;5069048;28;20023;-65
2022/07/04 00:27:47;;;;;;;6.25;2.65;;;18.80;81.70;;;;;;5061795;28;20496;-66
2022/07/04 00:30:13;;;;;;;4.65;2.45;;;18.80;81.80;;;;;;5068244;28;20070;-66
2022/07/04 00:32:39;;;;;;;5.15;2.30;;;18.70;81.70;;;;;;5074525;28;20411;-65
2022/07/04 00:35:05;;;;;;;8.38;2.40;;;18.70;81.90;;;;;;5062448;28;20039;-66
2022/07/04 00:37:34;;;;;;;3.30;2.10;;;18.70;81.90;;;;;;5058924;28;20036;-66
2022/07/04 00:40:00;;;;;;;8.05;2.55;;;18.70;81.90;;;;;;5068359;28;20487;-65
2022/07/04 00:42:25;;;;;;;8.00;2.60;;;18.70;82.00;;;;;;5068537;28;20112;-66
2022/07/04 00:44:51;;;;;;;6.38;2.25;;;18.60;81.90;;;;;;5065565;28;20029;-66
2022/07/04 00:47:17;;;;;;;8.73;2.30;;;18.60;81.90;;;;;;5075486;28;20349;-66
2022/07/04 00:49:42;;;;;;;6.07;2.42;;;18.60;82.00;;;;;;5068642;28;20373;-66
2022/07/04 00:52:08;;;;;;;8.52;2.30;;;18.60;82.10;;;;;;5058763;28;20477;-66
2022/07/04 00:54:35;;;;;;;6.35;2.35;;;18.50;82.00;;;;;;5072353;28;20029;-66
2022/07/04 00:57:01;;;;;;;4.78;2.35;;;18.50;82.10;;;;;;5074147;28;20074;-66
2022/07/04 00:59:27;;;;;;;6.90;2.50;;;18.50;82.00;;;;;;5073953;28;20036;-66
2022/07/04 01:01:53;;;;;;;6.47;2.65;;;18.40;82.00;;;;;;5063466;28;20511;-66
2022/07/04 01:04:19;;;;;;;8.07;2.40;;;18.40;82.00;;;;;;5058439;28;20052;-66
2022/07/04 01:06:45;;;;;;;8.23;1.88;;;18.40;81.90;;;;;;5064196;28;20055;-66
2022/07/04 01:09:10;;;;;;;6.30;2.75;;;18.40;81.80;;;;;;5070342;28;20468;-65
2022/07/04 01:11:42;;;;;;;6.88;2.90;;;18.30;81.80;;;;;;5063519;28;20033;-66
2022/07/04 01:14:08;;;;;;;8.15;2.70;;;18.40;81.90;;;;;;5062035;28;20404;-66
2022/07/04 01:16:35;;;;;;;3.33;2.30;;;18.30;82.00;;;;;;5074062;28;20035;-65
2022/07/04 01:19:03;;;;;;;11.73;2.63;;;18.30;81.90;;;;;;5072476;28;20039;-66
2022/07/04 01:21:31;;;;;;;2.45;1.95;;;18.30;82.00;;;;;;5066614;28;20542;-65
2022/07/04 01:23:57;;;;;;;9.23;2.42;;;18.20;81.90;;;;;;5063885;28;20032;-65
2022/07/04 01:26:22;;;;;;;8.85;2.75;;;18.20;81.90;;;;;;5062368;28;20040;-66
2022/07/04 01:28:48;;;;;;;9.07;2.78;;;18.20;81.90;;;;;;5061301;28;20060;-66
2022/07/04 01:31:14;;;;;;;4.47;2.15;;;18.10;81.90;;;;;;5055371;28;20138;-65
2022/07/04 01:33:40;;;;;;;11.15;2.40;;;18.10;81.90;;;;;;5058905;28;20033;-65
2022/07/04 01:36:05;;;;;;;5.68;2.55;;;18.10;81.90;;;;;;5053485;28;20035;-66
2022/07/04 01:38:31;;;;;;;7.07;2.53;;;18.10;82.10;;;;;;5054972;28;20094;-66
2022/07/04 01:40:57;;;;;;;7.47;2.63;;;18.10;82.00;;;;;;5069487;28;20082;-66
2022/07/04 01:43:22;;;;;;;5.53;2.38;;;18.10;82.00;;;;;;5074094;28;20036;-66
2022/07/04 01:45:48;;;;;;;5.65;2.47;;;18.10;81.90;;;;;;5071913;28;20109;-66
2022/07/04 01:48:15;;;;;;;5.32;2.53;;;18.10;82.00;;;;;;5062721;28;20048;-65
2022/07/04 01:50:41;;;;;;;5.97;2.17;;;18.00;81.80;;;;;;5069901;28;20043;-66
2022/07/04 01:53:07;;;;;;;3.03;2.20;;;18.00;81.70;;;;;;5055124;28;20024;-65
2022/07/04 01:55:33;;;;;;;5.72;2.50;;;18.00;81.50;;;;;;5056055;28;20527;-65
2022/07/04 01:58:00;;;;;;;9.30;2.28;;;18.00;81.60;;;;;;5069831;28;20379;-66
2022/07/04 02:03:10;;;;;;;5.00;2.22;;;17.90;81.70;;;;;;5065471;28;20075;-66
2022/07/04 02:05:39;;;;;;;5.30;2.10;;;17.80;81.60;;;;;;5054708;28;20021;-66
2022/07/04 02:08:06;;;;;;;7.07;2.20;;;17.80;82.20;;;;;;5058683;28;20514;-66
2022/07/04 02:10:31;;;;;;;3.50;2.10;;;17.80;81.70;;;;;;5057258;28;20036;-66
2022/07/04 02:13:03;;;;;;;3.65;2.00;;;17.80;81.90;;;;;;5067106;28;20098;-66
2022/07/04 02:15:32;;;;;;;5.32;2.22;;;17.80;82.10;;;;;;5068953;28;20087;-65
2022/07/04 02:18:01;;;;;;;12.10;2.67;;;17.70;82.10;;;;;;5072527;28;20032;-65
2022/07/04 02:20:27;;;;;;;6.63;2.20;;;17.70;82.20;;;;;;5072906;28;20037;-66
2022/07/04 02:22:53;;;;;;;4.15;2.15;;;17.70;82.20;;;;;;5070929;28;20035;-65
2022/07/04 02:25:19;;;;;;;5.35;2.30;;;17.70;82.30;;;;;;5070757;28;20037;-66
2022/07/04 02:27:45;;;;;;;5.22;2.40;;;17.70;82.40;;;;;;5072782;28;20119;-65
2022/07/04 02:30:11;;;;;;;6.25;2.50;;;17.70;82.40;;;;;;5071226;28;20112;-65
2022/07/04 02:32:37;;;;;;;6.53;2.28;;;17.70;82.50;;;;;;5069887;28;20377;-65
2022/07/04 02:35:04;;;;;;;4.18;2.30;;;17.70;82.60;;;;;;5073025;28;20107;-65
2022/07/04 02:37:29;;;;;;;10.93;2.85;;;17.60;82.70;;;;;;5068554;28;20131;-65
2022/07/04 02:39:55;;;;;;;5.63;2.35;;;17.60;82.50;;;;;;5065263;28;20033;-65
2022/07/04 02:42:21;;;;;;;7.03;2.38;;;17.60;82.30;;;;;;5066739;28;20447;-65
2022/07/04 02:44:47;;;;;;;7.88;2.10;;;17.60;82.20;;;;;;5070567;28;20027;-66
2022/07/04 02:47:13;;;;;;;5.22;2.30;;;17.60;82.20;;;;;;5071624;28;20064;-65
2022/07/04 02:49:39;;;;;;;3.15;1.98;;;17.50;82.10;;;;;;5069618;28;20051;-66
2022/07/04 02:52:05;;;;;;;4.88;2.00;;;17.50;82.00;;;;;;5069979;28;20533;-65
2022/07/04 02:54:30;;;;;;;5.53;2.22;;;17.40;82.00;;;;;;5069291;28;20025;-65
2022/07/04 02:56:56;;;;;;;5.45;1.90;;;17.50;82.10;;;;;;5071631;28;20028;-65
2022/07/04 02:59:22;;;;;;;5.72;2.28;;;17.40;82.00;;;;;;5071036;28;20054;-66
2022/07/04 03:01:47;;;;;;;4.32;2.03;;;17.40;82.20;;;;;;5071338;28;20088;-65
2022/07/04 03:04:13;;;;;;;8.27;2.28;;;17.30;82.30;;;;;;5069110;28;20032;-66
2022/07/04 03:06:39;;;;;;;4.18;2.15;;;17.30;82.50;;;;;;5066314;28;20091;-66
2022/07/04 03:09:06;;;;;;;4.78;2.40;;;17.30;82.50;;;;;;5071445;28;20484;-65
2022/07/04 03:11:32;;;;;;;2.92;1.98;;;17.30;82.70;;;;;;5071047;28;20043;-66
2022/07/04 03:13:58;;;;;;;6.28;2.60;;;17.30;82.60;;;;;;5067867;28;20025;-66
2022/07/04 03:16:24;;;;;;;5.78;2.42;;;17.30;82.70;;;;;;5071668;28;20071;-65
2022/07/04 03:18:49;;;;;;;8.63;2.88;;;17.20;82.50;;;;;;5070685;28;20032;-65
2022/07/04 03:21:15;;;;;;;6.15;2.33;;;17.20;82.90;;;;;;5069012;28;20362;-67
2022/07/04 03:23:41;;;;;;;5.85;2.35;;;17.20;83.60;;;;;;5062590;28;20025;-65
2022/07/04 03:26:09;;;;;;;4.43;2.53;;;17.20;83.00;;;;;;5055257;28;20028;-66
2022/07/04 03:28:35;;;;;;;9.13;3.28;;;17.20;83.00;;;;;;5058896;28;20032;-66
2022/07/04 03:31:00;;;;;;;5.63;2.25;;;17.10;83.10;;;;;;5068310;28;20438;-65
2022/07/04 03:33:26;;;;;;;6.07;2.20;;;17.20;83.30;;;;;;5071037;28;20029;-65
2022/07/04 03:35:52;;;;;;;7.15;2.65;;;17.20;83.20;;;;;;5070567;28;20016;-65
2022/07/04 03:38:18;;;;;;;5.15;2.70;;;17.10;83.10;;;;;;5063271;28;20452;-65
2022/07/04 03:40:43;;;;;;;3.53;1.63;;;17.10;83.10;;;;;;5070928;28;20024;-65
2022/07/04 03:43:09;;;;;;;7.38;2.35;;;17.10;82.70;;;;;;5056751;28;20040;-65
2022/07/04 03:45:35;;;;;;;3.90;2.38;;;17.00;82.90;;;;;;5063248;28;20040;-65
2022/07/04 03:48:04;;;;;;;6.00;2.55;;;17.00;82.90;;;;;;5051962;28;20052;-66
2022/07/04 03:50:29;;;;;;;12.82;2.55;;;17.00;83.00;;;;;;5061454;28;20031;-65
2022/07/04 03:52:55;;;;;;;5.68;2.72;;;17.00;83.10;;;;;;5054764;28;20036;-65
2022/07/04 03:55:21;;;;;;;5.07;2.67;;;17.00;83.40;;;;;;5061430;28;20035;-66
2022/07/04 03:57:46;;;;;;;5.63;2.60;;;17.00;83.60;;;;;;5070214;28;20070;-65
2022/07/04 04:00:13;;;;;;;6.00;2.85;;;17.00;83.80;;;;;;5071705;28;20403;-65
2022/07/04 04:02:39;;;;;;;3.78;2.47;;;17.00;84.00;;;;;;5069399;28;20025;-65
2022/07/04 04:07:50;;;;;;;10.35;3.05;;;17.00;84.10;;;;;;5070214;28;20260;-66
2022/07/04 04:10:16;;;;;;;4.78;2.75;;;16.90;83.90;;;;;;5072238;28;20035;-65
2022/07/04 04:12:42;;;;;;;10.65;2.65;;;17.00;84.20;;;;;;5066428;28;20033;-65
2022/07/04 04:15:08;;;;;;;6.57;3.15;;;17.00;84.30;;;;;;5065058;28;20025;-65
2022/07/04 04:17:34;;;;;;;6.47;3.28;;;17.00;84.50;;;;;;5071079;28;20028;-66
2022/07/04 04:20:00;;;;;;;7.15;2.88;;;17.00;84.90;;;;;;5072111;28;20386;-65
2022/07/04 04:22:33;;;;;;;6.13;3.13;;;17.00;84.90;;;;;;5069060;28;20064;-66
2022/07/04 04:25:01;;;;;;;;;;;17.00;85.10;;;;;;5058392;28;20110;-66
2022/07/04 04:27:27;;;;;;;5.53;2.72;;;17.00;84.20;;;;;;5071486;28;19963;-65
2022/07/04 04:29:53;;;;;;;8.38;3.17;;;17.00;84.50;;;;;;5070145;28;20427;-65
2022/07/04 04:32:18;;;;;;;11.25;3.00;;;17.00;84.80;;;;;;5060696;28;20028;-65
2022/07/04 04:34:44;;;;;;;10.75;3.40;;;17.00;85.60;;;;;;5070110;28;20170;-65
2022/07/04 04:37:10;;;;;;;6.00;3.42;;;17.00;85.40;;;;;;5066112;28;20028;-66
2022/07/04 04:39:36;;;;;;;5.43;3.35;;;17.00;85.60;;;;;;5065782;28;20064;-65
2022/07/04 04:42:02;;;;;;;6.05;3.10;;;17.00;86.10;;;;;;5070429;28;20029;-66
2022/07/04 04:44:31;;;;;;;6.25;3.30;;;17.10;86.00;;;;;;5059064;28;20465;-65
2022/07/04 04:46:57;;;;;;;8.98;2.88;;;17.10;86.10;;;;;;5069990;28;20048;-66
2022/07/04 04:49:22;;;;;;;9.27;2.97;;;17.10;85.70;;;;;;5068359;28;20029;-66
2022/07/04 04:51:48;;;;;;;5.60;2.90;;;17.10;85.70;;;;;;5071312;28;20040;-66
2022/07/04 04:54:14;;;;;;;6.93;3.05;;;17.10;85.70;;;;;;5070871;28;20032;-65
2022/07/04 04:56:39;;;;;;;7.10;3.38;;;17.20;85.80;;;;;;5071122;28;20055;-65
2022/07/04 04:59:07;;;;;;;9.60;3.00;;;17.10;85.50;;;;;;5070735;28;20017;-66
2022/07/04 05:01:33;;;;;;;10.18;3.35;;;17.10;85.40;;;;;;5070918;28;20036;-66
2022/07/04 05:03:59;;;;;;;4.68;3.10;;;17.10;85.70;;;;;;5068866;28;20037;-66
2022/07/04 05:06:29;;;;;;;7.85;2.97;;;17.10;85.70;;;;;;5071636;28;20404;-66
2022/07/04 05:08:55;;;;;;;5.80;2.90;;;17.10;85.60;;;;;;5071202;28;20495;-65
2022/07/04 05:11:20;;;;;;;8.75;3.20;;;17.10;85.70;;;;;;5075119;28;20028;-65
2022/07/04 05:13:46;;;;;;;8.02;3.22;;;17.10;85.70;;;;;;5070006;28;20029;-67
2022/07/04 05:16:12;;;;;;;3.92;2.60;;;17.20;85.60;;;;;;5055888;28;20112;-67
2022/07/04 05:18:38;;;;;;;9.10;3.58;;;17.10;85.70;;;;;;5067207;28;20389;-67
2022/07/04 05:21:04;;;;;;;7.15;2.30;;;17.10;86.20;;;;;;5067040;28;20434;-65
2022/07/04 05:23:30;;;;;;;3.03;2.17;;;17.10;85.90;;;;;;5065877;28;20043;-65
2022/07/04 05:25:58;;;;;;;7.80;1.65;;;17.10;86.00;;;;;;5073404;28;20024;-65
2022/07/04 05:28:24;;;;;;;4.05;2.40;;;17.10;85.70;;;;;;5073797;28;20439;-65
2022/07/04 05:30:49;;;;;;;8.05;2.10;;;17.20;86.30;;;;;;5068660;28;20025;-66
2022/07/04 05:33:15;;;;;;;2.03;1.38;;;17.20;86.50;;;;;;5073426;28;20047;-66
2022/07/04 05:35:41;;;;;;;5.60;2.88;;;17.10;86.40;;;;;;5072602;28;20492;-66
2022/07/04 05:38:07;;;;;;;2.50;1.60;;;17.20;87.60;;;;;;5068400;28;20036;-66
2022/07/04 05:40:33;;;;;;;1.15;1.05;;;17.20;87.70;;;;;;5072441;28;20024;-66
2022/07/04 05:43:01;;;;;;;5.30;2.03;;;17.20;87.40;;;;;;5071832;28;20020;-66
2022/07/04 05:45:27;;;;;;;4.22;2.42;;;17.20;88.20;;;;;;5071377;28;20031;-66
2022/07/04 05:47:53;;;;;;;2.13;1.05;;;17.20;88.40;;;;;;5071669;28;20044;-66
2022/07/04 05:50:19;;;;;;;2.47;1.50;;;17.30;88.30;;;;;;5072215;28;20464;-66
2022/07/04 05:52:44;;;;;;;2.95;1.63;;;17.30;88.50;;;;;;5072711;28;20032;-66
2022/07/04 05:55:10;;;;;;;4.28;2.00;;;17.30;89.00;;;;;;5069868;28;20089;-65
2022/07/04 05:57:36;;;;;;;3.55;2.03;;;17.30;89.10;;;;;;5071551;28;20063;-66
2022/07/04 06:00:07;;;;;;;5.93;2.30;;;17.40;89.40;;;;;;5072196;28;20131;-67
2022/07/04 06:02:32;;;;;;;6.30;1.80;;;17.40;89.80;;;;;;5072087;28;20418;-67
2022/07/04 06:04:58;;;;;;;1.20;1.00;;;17.40;89.80;;;;;;5073101;28;20031;-66
2022/07/04 06:07:24;;;;;;;5.93;1.83;;;17.40;89.50;;;;;;5068176;28;20049;-66
2022/07/04 06:09:50;;;;;;;6.13;2.10;;;17.40;90.00;;;;;;5070735;28;20039;-65
2022/07/04 06:12:15;;;;;;;2.85;1.77;;;17.40;90.20;;;;;;5070144;28;20032;-65
2022/07/04 06:14:41;;;;;;;9.13;2.75;;;17.50;90.30;;;;;;5069939;28;20020;-67
2022/07/04 06:17:07;;;;;;;7.95;1.40;;;17.60;90.50;;;;;;5071209;28;20131;-66
2022/07/04 06:19:33;;;;;;;2.88;1.60;;;17.50;90.40;;;;;;5069499;28;20111;-65
2022/07/04 06:21:58;;;;;;;5.20;2.47;;;17.60;90.40;;;;;;5067811;28;20032;-66
2022/07/04 06:24:24;;;;;;;2.80;1.63;;;17.60;90.50;;;;;;5069907;28;20457;-65
2022/07/04 06:26:50;;;;;;;4.05;1.92;;;17.60;90.40;;;;;;5073133;28;20043;-66
2022/07/04 06:29:15;;;;;;;7.13;2.75;;;17.70;90.50;;;;;;5069855;28;20040;-66
2022/07/04 06:31:41;;;;;;;4.57;2.05;;;17.70;90.90;;;;;;5069562;28;20457;-66
2022/07/04 06:36:51;;;;;;;2.72;1.63;;;17.70;90.70;;;;;;5067607;28;20050;-66
2022/07/04 06:39:17;;;;;;;6.72;1.90;;;17.80;90.70;;;;;;5071191;28;20490;-65
2022/07/04 06:41:42;;;;;;;2.20;1.20;;;17.80;91.00;;;;;;5071131;28;20032;-66
2022/07/04 06:44:08;;;;;;;2.60;1.83;;;17.90;90.90;;;;;;5073457;28;20054;-66
2022/07/04 06:46:34;;;;;;;5.25;1.45;;;17.90;90.80;;;;;;5071168;28;20397;-66
2022/07/04 06:48:59;;;;;;;4.75;2.17;;;17.90;91.00;;;;;;5063392;28;20029;-66
2022/07/04 06:51:25;;;;;;;1.65;1.08;;;17.90;91.10;;;;;;5068421;28;20620;-66
2022/07/04 06:53:51;;;;;;;4.43;2.00;;;18.00;91.10;;;;;;5073285;28;20547;-66
2022/07/04 06:56:17;;;;;;;1.17;0.80;;;18.00;91.30;;;;;;5070639;28;20064;-65
2022/07/04 06:58:43;;;;;;;2.95;1.45;;;18.00;91.20;;;;;;5072140;28;20506;-66
2022/07/04 07:01:18;;;;;;;1.88;1.50;;;18.10;91.40;;;;;;5071754;28;20025;-66
2022/07/04 07:03:44;;;;;;;4.78;1.52;;;18.10;91.60;;;;;;5071891;28;20476;-66
2022/07/04 07:06:10;;;;;;;1.50;1.15;;;18.20;91.70;;;;;;5071870;28;20026;-66
2022/07/04 07:08:36;;;;;;;8.52;2.10;;;18.20;91.70;;;;;;5061603;28;20029;-65
2022/07/04 07:11:12;;;;;;;2.40;1.45;;;18.20;91.90;;;;;;5069241;28;20383;-66
2022/07/04 07:13:45;;;;;;;2.13;1.50;;;18.20;91.90;;;;;;5072051;28;20032;-66
2022/07/04 07:16:11;;;;;;;1.40;0.85;;;18.30;92.00;;;;;;5063758;28;20036;-66
2022/07/04 07:18:40;;;;;;;2.50;1.50;;;18.30;92.10;;;;;;5066579;28;20028;-66
2022/07/04 07:21:06;;;;;;;3.40;1.05;;;18.30;92.10;;;;;;5072910;28;20025;-66
2022/07/04 07:23:32;;;;;;;2.30;1.05;;;18.40;92.30;;;;;;5067166;28;20503;-66
2022/07/04 07:25:58;;;;;;;3.38;1.52;;;18.40;92.40;;;;;;5072040;28;20518;-66
2022/07/04 07:28:23;;;;;;;4.03;1.25;;;18.50;92.40;;;;;;5065985;28;20369;-66
2022/07/04 07:30:49;;;;;;;2.67;1.42;;;18.50;92.30;;;;;;5063697;28;20404;-66
2022/07/04 07:33:15;;;;;;;3.60;1.65;;;18.50;92.30;;;;;;5067354;28;20043;-66
2022/07/04 07:35:40;;;;;;;1.08;0.88;;;18.50;92.30;;;;;;5059457;28;20036;-66
2022/07/04 07:38:06;;;;;;;5.45;2.00;;;18.60;92.30;;;;;;5058443;28;20388;-66
2022/07/04 07:40:33;;;;;;;4.28;1.23;;;18.60;92.30;;;;;;5058991;28;20035;-66
2022/07/04 07:42:58;;;;;;;1.08;0.93;;;18.60;92.20;;;;;;5058123;28;20040;-66
2022/07/04 07:45:24;;;;;;;1.15;0.90;;;18.70;92.50;;;;;;5071229;28;20024;-66
2022/07/04 07:47:50;;;;;;;3.17;1.63;;;18.60;92.20;;;;;;5071807;28;20273;-66
2022/07/04 07:50:16;;;;;;;3.97;1.88;;;18.70;92.30;;;;;;5071808;28;20051;-66
2022/07/04 07:52:41;;;;;;;5.50;1.48;;;18.70;92.10;;;;;;5057214;28;20041;-66
2022/07/04 07:55:07;;;;;;;0.77;0.75;;;18.70;92.20;;;;;;5052195;28;20021;-66
2022/07/04 07:57:33;;;;;;;2.38;1.02;;;18.80;92.20;;;;;;5065222;28;20111;-66
2022/07/04 07:59:59;;;;;;;4.50;1.98;;;18.80;92.20;;;;;;5071547;28;20112;-66
2022/07/04 08:05:10;;;;;;;2.50;1.00;;;18.90;92.10;;;;;;5061783;28;20033;-66
2022/07/04 08:07:36;;;;;;;3.38;1.42;;;18.90;92.10;;;;;;5050982;28;20048;-66
2022/07/04 08:10:08;;;;;;;4.95;1.50;;;18.90;92.10;;;;;;5063003;28;20388;-67
2022/07/04 08:12:35;;;;;;;6.93;1.52;;;19.00;92.00;;;;;;5065333;28;20068;-68
2022/07/04 08:15:01;;;;;;;5.55;2.00;;;19.10;92.00;;;;;;5061206;28;21424;-67
2022/07/04 08:17:28;;;;;;;3.55;1.23;;;19.10;92.00;;;;;;5069333;28;20532;-67
2022/07/04 08:19:54;;;;;;;5.80;1.98;;;19.10;91.90;;;;;;5069819;28;20031;-67
2022/07/04 08:22:20;;;;;;;8.27;2.33;;;19.10;92.00;;;;;;5070056;28;20024;-67
2022/07/04 08:24:45;;;;;;;6.15;1.70;;;19.20;91.90;;;;;;5069526;28;20950;-67
2022/07/04 08:27:11;;;;;;;5.72;1.88;;;19.20;91.80;;;;;;5066971;28;20148;-67
2022/07/04 08:29:37;;;;;;;0.88;0.80;;;19.20;91.70;;;;;;5069964;28;20060;-67
2022/07/04 08:32:03;;;;;;;4.07;1.45;;;19.30;91.70;;;;;;5067437;28;20112;-67
2022/07/04 08:34:29;;;;;;;1.33;0.70;;;19.30;91.70;;;;;;5066559;28;20357;-67
2022/07/04 08:36:55;;;;;;;2.60;1.05;;;19.30;91.70;;;;;;5067998;28;20032;-67
2022/07/04 08:39:21;;;;;;;4.25;1.50;;;19.30;91.60;;;;;;5067448;28;20070;-67
2022/07/04 08:41:50;;;;;;;4.78;1.50;;;19.30;91.70;;;;;;5067936;28;20051;-67
2022/07/04 08:44:18;;;;;;;5.40;1.90;;;19.30;91.60;;;;;;5065223;28;20024;-64
2022/07/04 08:46:44;;;;;;;5.05;1.45;;;19.30;91.70;;;;;;5072103;28;20472;-66
2022/07/04 08:49:20;;;;;;;6.55;2.10;;;19.40;91.60;;;;;;5070471;28;20025;-67
2022/07/04 08:52:03;;;;;;;4.13;1.70;;;19.40;91.60;;;;;;5071231;28;20040;-66
2022/07/04 09:00:01;;;;;;;1.13;0.98;;;19.50;91.30;;;;;;5072471;28;20024;-67
2022/07/04 09:02:28;;;;;;;1.92;1.15;;;19.50;91.20;;;;;;5071277;28;20055;-67
2022/07/04 09:04:54;;;;;;;3.05;1.40;;;19.50;91.20;;;;;;5074766;28;20033;-66
2022/07/04 09:07:20;;;;;;;0.50;0.50;;;19.60;91.20;;;;;;5071067;28;20051;-67
2022/07/04 09:09:46;;;;;;;0.60;0.43;;;19.60;91.00;;;;;;5068245;28;20029;-67
2022/07/04 09:12:12;;;;;;;1.58;0.63;;;19.60;90.90;;;;;;5070622;28;20396;-67
2022/07/04 09:14:39;;;;;;;0.70;0.43;;;19.60;90.60;;;;;;5069877;28;20025;-67
2022/07/04 09:17:06;;;;;;;6.80;0.70;;;19.60;90.40;;;;;;5069217;28;20056;-68
2022/07/04 09:19:33;;;;;;;0.70;0.60;;;19.60;90.20;;;;;;5069425;28;20048;-69
2022/07/04 09:22:04;;;;;;;0.45;0.45;;;19.60;90.30;;;;;;5071327;28;20024;-66
2022/07/04 09:24:47;;;;;;;0.22;0.22;;;19.70;90.20;;;;;;5068994;28;20033;-66
2022/07/04 09:27:30;;;;;;;0.85;0.63;;;19.60;90.10;;;;;;5073353;28;20040;-68
2022/07/04 09:29:56;;;;;;;0.52;0.52;;;19.70;90.00;;;;;;5073318;28;20424;-67
2022/07/04 09:32:42;;;;;;;2.78;0.75;;;19.70;90.00;;;;;;5072798;28;20032;-66
2022/07/04 09:35:16;;;;;;;3.28;1.40;;;19.70;90.10;;;;;;5071902;28;20365;-65
2022/07/04 09:37:46;;;;;;;1.23;0.88;;;19.80;90.20;;;;;;5068321;28;20041;-66
2022/07/04 09:40:30;;;;;;;1.75;0.50;;;19.80;90.10;;;;;;5071132;28;20461;-67
2022/07/04 09:42:59;;;;;;;0.57;0.57;;;19.80;90.00;;;;;;5073233;28;20025;-67
2022/07/04 09:45:25;;;;;;;1.25;0.95;;;19.90;90.00;;;;;;5070876;28;20032;-66
2022/07/04 09:47:55;;;;;;;1.58;1.00;;;19.90;89.80;;;;;;5072503;28;20048;-68
2022/07/04 09:50:22;;;;;;;1.77;0.80;;;19.90;89.80;;;;;;5074031;28;20025;-66
2022/07/04 09:52:53;;;;;;;1.35;0.60;;;20.00;89.70;;;;;;5071253;28;20025;-70
2022/07/04 09:55:38;;;;;;;4.15;1.00;;;20.10;89.20;;;;;;5072300;28;20107;-66
2022/07/04 09:58:06;;;;;;;0.77;0.77;;;20.20;88.40;;;;;;5071241;28;20384;-67
2022/07/04 10:00:40;;;;;;;0.40;0.40;;;20.20;88.60;;;;;;5071371;28;20392;-67
2022/07/04 10:03:25;;;;;;;1.85;0.57;;;20.20;88.60;;;;;;5070253;28;20499;-67
2022/07/04 10:06:11;;;;;;;1.67;0.93;;;20.30;88.60;;;;;;5057316;28;20111;-64
2022/07/04 10:08:39;;;;;;;1.75;0.75;;;20.30;87.90;;;;;;5054371;28;20040;-64
2022/07/04 10:11:06;;;;;;;2.17;0.63;;;20.40;88.40;;;;;;5058728;28;20032;-64
2022/07/04 10:13:32;;;;;;;9.30;1.00;;;20.50;88.30;;;;;;5059323;28;20123;-65
2022/07/04 10:15:58;;;;;;;0.80;0.80;;;20.50;88.20;;;;;;5054178;28;20033;-64
2022/07/04 10:18:27;;;;;;;1.15;0.95;;;20.50;87.70;;;;;;5069372;28;20032;-64
2022/07/04 10:20:55;;;;;;;2.95;1.00;;;20.60;87.90;;;;;;5070560;28;20143;-64
2022/07/04 10:23:22;;;;;;;0.95;0.70;;;20.60;87.90;;;;;;5072082;28;20060;-66
2022/07/04 10:25:48;;;;;;;4.55;0.82;;;20.60;87.60;;;;;;5073252;28;20388;-66
2022/07/04 10:28:15;;;;;;;0.82;0.82;;;20.60;87.40;;;;;;5071131;28;20040;-66
2022/07/04 10:30:42;;;;;;;3.45;0.70;;;20.60;87.40;;;;;;5069459;28;20040;-66
2022/07/04 10:33:10;;;;;;;1.00;0.80;;;20.70;86.70;;;;;;5067447;28;20033;-66
2022/07/04 10:35:57;;;;;;;5.38;0.85;;;20.70;86.10;;;;;;5070199;28;20073;-66
2022/07/04 10:38:24;;;;;;;1.15;0.63;;;20.70;86.20;;;;;;5068455;28;20115;-66
2022/07/04 10:40:52;;;;;;;1.88;0.90;;;20.60;86.60;;;;;;5066974;28;20027;-66
2022/07/04 10:46:05;;;;;;;;;;;20.70;87.00;;;;;;5069593;28;20047;-66
2022/07/04 10:48:31;;;;;;;1.25;0.90;;;20.80;87.00;;;;;;5069002;28;19995;-66
2022/07/04 10:51:04;;;;;;;0.55;0.55;;;20.80;87.20;;;;;;5068729;28;20538;-66
2022/07/04 10:53:31;;;;;;;1.10;0.80;;;20.80;86.60;;;;;;5071069;28;20036;-66
2022/07/04 10:56:55;;;;;;;0.90;0.88;;;20.80;86.30;;;;;;5069133;28;20074;-66
2022/07/04 10:59:29;;;;;;;0.22;0.22;;;20.90;86.20;;;;;;5064482;28;20097;-65
2022/07/04 11:02:08;;;;;;;0.88;0.80;;;20.90;85.90;;;;;;5069056;28;20615;-65
2022/07/04 11:04:51;;;;;;;0.55;0.55;;;21.00;85.80;;;;;;5069128;28;20036;-66
2022/07/04 11:07:30;;;;;;;2.92;0.98;;;21.00;86.10;;;;;;5067826;28;20092;-70
2022/07/04 11:10:22;;;;;;;2.97;1.27;;;21.00;86.20;;;;;;5070304;28;20047;-66
2022/07/04 11:12:54;;;;;;;0.80;0.73;;;21.00;85.70;;;;;;5066776;28;20500;-66
2022/07/04 11:15:31;;;;;;;1.10;1.00;;;21.10;86.10;;;;;;5067732;28;20028;-66
2022/07/04 11:18:00;;;;;;;0.95;0.85;;;21.20;85.90;;;;;;5069123;28;20035;-66
2022/07/04 11:20:28;;;;;;;0.80;0.80;;;21.20;85.90;;;;;;5068833;28;20028;-66
2022/07/04 11:23:13;;;;;;;1.35;1.10;;;21.30;85.70;;;;;;5069097;28;20036;-66
2022/07/04 11:25:41;;;;;;;1.23;0.75;;;21.30;85.70;;;;;;5066464;28;20115;-66
2022/07/04 11:28:26;;;;;;;1.85;0.60;;;21.30;85.20;;;;;;5068837;28;20460;-66
2022/07/04 11:30:53;;;;;;;1.95;0.77;;;21.40;84.80;;;;;;5066927;28;20063;-66
2022/07/04 11:33:22;;;;;;;0.75;0.75;;;21.40;84.40;;;;;;5070370;28;20035;-66
2022/07/04 11:36:04;;;;;;;1.90;0.73;;;21.40;84.20;;;;;;5069978;28;20601;-65
2022/07/04 11:38:48;;;;;;;2.63;0.52;;;21.40;84.20;;;;;;5066518;28;20028;-66
2022/07/04 11:47:03;;;;;;;;;;;21.40;83.10;;;;;;5065314;28;20044;-67
2022/07/04 11:49:29;;;;;;;1.42;0.68;;;21.40;84.00;;;;;;5069142;28;20275;-67
2022/07/04 11:51:55;;;;;;;2.03;0.80;;;21.50;84.10;;;;;;5069395;28;20038;-67
2022/07/04 11:54:21;;;;;;;0.43;0.43;;;21.60;84.00;;;;;;5068741;28;20056;-67
2022/07/04 11:56:47;;;;;;;0.73;0.60;;;21.60;83.70;;;;;;5069417;28;20021;-67
2022/07/04 11:59:14;;;;;;;0.57;0.50;;;21.70;83.50;;;;;;5069330;28;20104;-67
2022/07/04 12:01:44;;;;;;;0.80;0.20;;;21.80;83.40;;;;;;5068111;28;20532;-67
2022/07/04 12:04:22;;;;;;;0.70;0.47;;;21.80;82.40;;;;;;5069455;28;20091;-67
2022/07/04 12:06:49;;;;;;;2.33;0.57;;;21.80;82.10;;;;;;5066602;28;20117;-66
2022/07/04 12:09:18;;;;;;;0.65;0.63;;;21.80;81.10;;;;;;5067605;28;20032;-67
2022/07/04 12:11:59;;;;;;;0.80;0.65;;;21.80;80.30;;;;;;5070384;28;20468;-67
2022/07/04 12:14:27;;;;;;;4.75;1.23;;;21.90;80.30;;;;;;5061662;28;20033;-67
2022/07/04 12:17:18;;;;;;;0.90;0.43;;;21.90;80.20;;;;;;5052817;28;20037;-67
2022/07/04 12:19:58;;;;;;;1.20;0.70;;;21.90;80.10;;;;;;5073093;28;20507;-67
2022/07/04 12:22:32;;;;;;;4.88;0.95;;;21.90;79.70;;;;;;5075038;28;20078;-66
2022/07/04 12:24:59;;;;;;;1.48;0.60;;;21.90;79.20;;;;;;5075261;28;20473;-67
2022/07/04 12:27:29;;;;;;;0.52;0.52;;;22.00;79.40;;;;;;5071973;28;20437;-67
2022/07/04 12:29:55;;;;;;;0.82;0.73;;;22.00;80.30;;;;;;5065050;28;20028;-67
2022/07/04 12:32:21;;;;;;;2.83;0.77;;;22.10;80.00;;;;;;5071430;28;20364;-66
2022/07/04 12:34:47;;;;;;;1.00;0.80;;;22.10;79.50;;;;;;5069782;28;20036;-67
2022/07/04 12:37:16;;;;;;;0.57;0.57;;;22.10;78.60;;;;;;5069072;28;20029;-66
2022/07/04 12:39:45;;;;;;;1.15;0.70;;;22.20;77.40;;;;;;5072538;28;20115;-66
2022/07/04 12:42:14;;;;;;;3.22;1.00;;;22.20;78.30;;;;;;5068864;28;20032;-66
2022/07/04 12:44:41;;;;;;;0.52;0.50;;;22.20;78.20;;;;;;5070955;28;20052;-66
2022/07/04 12:47:08;;;;;;;2.58;0.80;;;22.20;79.30;;;;;;5071290;28;20106;-66
2022/07/04 12:49:34;;;;;;;1.35;0.52;;;22.30;79.60;;;;;;5072387;28;20056;-67
2022/07/04 12:52:15;;;;;;;2.97;1.08;;;22.30;78.80;;;;;;5071544;28;20086;-66
2022/07/04 12:54:41;;;;;;;0.60;0.55;;;22.40;77.90;;;;;;5071469;28;20033;-74
2022/07/04 12:57:14;;;;;;;0.75;0.50;;;22.40;77.90;;;;;;5071524;28;20043;-72
2022/07/04 12:59:41;;;;;;;2.47;1.13;;;22.50;77.80;;;;;;5071863;28;20048;-67
2022/07/04 13:02:08;;;;;;;0.95;0.52;;;22.50;77.50;;;;;;5074184;28;20446;-67
2022/07/04 13:04:35;;;;;;;0.30;0.30;;;22.40;77.50;;;;;;5071116;28;20075;-67
2022/07/04 13:07:16;;;;;;;0.30;0.30;;;22.50;76.90;;;;;;5071292;28;20058;-67
2022/07/04 13:09:42;;;;;;;0.50;0.50;;;22.60;76.00;;;;;;5067161;28;20054;-67
2022/07/04 13:12:24;;;;;;;0.55;0.55;;;22.50;74.90;;;;;;5070331;28;20074;-66
2022/07/04 13:14:54;;;;;;;1.75;0.38;;;22.60;75.00;;;;;;5071094;28;20107;-64
2022/07/04 13:17:20;;;;;;;1.25;0.50;;;22.70;75.10;;;;;;5068268;28;20609;-67